createdAt,value
2022-10-08T00:01:28.615Z,11.44
2022-10-08T00:03:57.069Z,11.45
2022-10-08T00:06:28.428Z,11.47
2022-10-08T00:09:07.601Z,11.57
2022-10-08T00:11:38.771Z,11.45
2022-10-08T00:14:08.225Z,11.38
2022-10-08T00:16:40.985Z,11.46
2022-10-08T00:19:12.795Z,11.45
2022-10-08T00:21:43.245Z,11.39
2022-10-08T00:24:17.266Z,11.42
2022-10-08T00:26:44.966Z,11.70
2022-10-08T00:29:15.200Z,11.47
2022-10-08T00:31:45.725Z,11.40
2022-10-08T00:34:16.205Z,11.31
2022-10-08T00:36:43.817Z,11.23
2022-10-08T00:39:16.831Z,11.36
2022-10-08T00:41:47.922Z,11.31
2022-10-08T00:44:43.266Z,11.42
2022-10-08T00:47:32.690Z,11.43
2022-10-08T00:50:00.019Z,11.23
2022-10-08T00:52:30.998Z,11.22
2022-10-08T00:54:58.529Z,11.18
2022-10-08T00:57:27.148Z,11.19
2022-10-08T00:59:54.888Z,11.14
2022-10-08T01:02:22.362Z,11.11
2022-10-08T01:04:50.007Z,11.12
2022-10-08T01:07:25.056Z,11.17
2022-10-08T01:10:00.349Z,11.25
2022-10-08T01:12:58.711Z,11.40
2022-10-08T01:15:41.025Z,11.28
2022-10-08T01:18:21.594Z,11.37
2022-10-08T01:21:01.107Z,11.29
2022-10-08T01:23:56.162Z,11.38
2022-10-08T01:26:40.902Z,11.31
2022-10-08T01:29:17.190Z,11.20
2022-10-08T01:31:48.806Z,11.21
2022-10-08T01:34:22.292Z,11.22
2022-10-08T01:36:54.090Z,11.25
2022-10-08T01:39:25.880Z,11.18
2022-10-08T01:41:56.782Z,11.15
2022-10-08T01:44:33.908Z,11.19
2022-10-08T01:47:07.427Z,11.18
2022-10-08T01:49:42.198Z,11.18
2022-10-08T01:52:48.825Z,11.22
2022-10-08T01:55:32.367Z,11.19
2022-10-08T01:58:04.840Z,11.14
2022-10-08T02:00:34.719Z,11.13
2022-10-08T02:03:02.694Z,11.07
2022-10-08T02:05:34.903Z,11.07
2022-10-08T02:08:02.600Z,11.03
2022-10-08T02:10:30.516Z,11.02
2022-10-08T02:12:58.334Z,11.00
2022-10-08T02:15:28.811Z,11.10
2022-10-08T02:18:06.632Z,11.09
2022-10-08T02:20:45.821Z,11.12
2022-10-08T02:23:32.531Z,11.12
2022-10-08T02:26:02.961Z,11.04
2022-10-08T02:28:39.616Z,11.12
2022-10-08T02:31:18.172Z,11.10
2022-10-08T02:34:11.637Z,11.25
2022-10-08T02:36:45.744Z,11.10
2022-10-08T02:39:16.088Z,11.06
2022-10-08T02:41:51.814Z,11.12
2022-10-08T02:44:42.021Z,11.05
2022-10-08T02:47:15.073Z,11.08
2022-10-08T02:49:51.943Z,11.03
2022-10-08T02:52:22.107Z,11.04
2022-10-08T02:54:52.225Z,11.01
2022-10-08T02:57:31.239Z,11.10
2022-10-08T02:59:59.515Z,10.96
2022-10-08T03:02:39.705Z,11.12
2022-10-08T03:05:14.062Z,11.10
2022-10-08T03:07:42.945Z,11.09
2022-10-08T03:10:10.780Z,11.04
2022-10-08T03:12:38.797Z,11.05
2022-10-08T03:15:09.394Z,11.09
2022-10-08T03:17:41.732Z,11.14
2022-10-08T03:20:10.458Z,11.13
2022-10-08T03:22:38.751Z,11.12
2022-10-08T03:25:06.322Z,11.14
2022-10-08T03:27:35.494Z,11.10
2022-10-08T03:30:04.849Z,11.15
2022-10-08T03:32:32.619Z,11.16
2022-10-08T03:35:00.056Z,11.11
2022-10-08T03:37:27.445Z,11.20
2022-10-08T03:39:54.839Z,11.20
2022-10-08T03:42:22.198Z,11.25
2022-10-08T03:44:49.760Z,11.26
2022-10-08T03:47:17.211Z,11.26
2022-10-08T03:49:44.572Z,11.30
2022-10-08T03:52:11.959Z,11.33
2022-10-08T03:54:39.333Z,11.34
2022-10-08T03:57:06.778Z,11.36
2022-10-08T03:59:34.129Z,11.38
2022-10-08T04:02:01.550Z,11.39
2022-10-08T04:04:29.149Z,11.37
2022-10-08T04:06:56.618Z,11.38
2022-10-08T04:09:23.995Z,11.35
2022-10-08T04:11:51.433Z,11.37
2022-10-08T04:14:18.908Z,11.36
2022-10-08T04:16:46.481Z,11.39
2022-10-08T04:19:14.514Z,11.40
2022-10-08T04:21:42.070Z,11.43
2022-10-08T04:24:09.876Z,11.47
2022-10-08T04:26:37.287Z,11.49
2022-10-08T04:29:04.711Z,11.52
2022-10-08T04:31:32.169Z,11.59
2022-10-08T04:33:59.629Z,11.64
2022-10-08T04:36:27.133Z,11.70
2022-10-08T04:38:54.611Z,11.80
2022-10-08T04:41:26.377Z,11.93
2022-10-08T04:43:58.346Z,11.97
2022-10-08T04:46:25.868Z,11.99
2022-10-08T04:48:55.683Z,12.09
2022-10-08T04:51:25.363Z,12.11
2022-10-08T04:53:54.296Z,12.14
2022-10-08T04:56:26.637Z,12.20
2022-10-08T04:58:57.735Z,12.22
2022-10-08T05:01:26.858Z,12.28
2022-10-08T05:03:56.108Z,12.31
2022-10-08T05:06:26.305Z,12.42
2022-10-08T05:08:54.069Z,12.44
2022-10-08T05:11:25.191Z,12.58
2022-10-08T05:13:54.153Z,12.67
2022-10-08T05:16:21.922Z,12.69
2022-10-08T05:18:52.179Z,12.94
2022-10-08T05:21:22.832Z,13.02
2022-10-08T05:24:02.531Z,13.15
2022-10-08T05:26:57.036Z,13.15
2022-10-08T05:29:21.233Z,13.17
2022-10-08T05:31:48.778Z,13.18
2022-10-08T05:34:16.548Z,13.23
2022-10-08T05:36:43.961Z,13.26
2022-10-08T05:39:12.025Z,13.26
2022-10-08T05:41:39.499Z,13.28
2022-10-08T05:44:07.713Z,13.33
2022-10-08T05:46:36.475Z,13.46
2022-10-08T05:49:07.588Z,13.63
2022-10-08T05:51:36.440Z,13.92
2022-10-08T05:54:04.008Z,14.23
2022-10-08T05:56:31.970Z,14.57
2022-10-08T05:58:59.574Z,14.79
2022-10-08T06:01:29.810Z,14.93
2022-10-08T06:04:08.136Z,15.01
2022-10-08T06:06:37.523Z,15.03
2022-10-08T06:09:06.737Z,15.14
2022-10-08T06:11:36.487Z,15.17
2022-10-08T06:14:06.313Z,15.23
2022-10-08T06:16:35.113Z,15.31
2022-10-08T06:19:03.586Z,15.47
2022-10-08T06:21:31.966Z,15.53
2022-10-08T06:24:01.675Z,15.64
2022-10-08T06:26:35.608Z,15.70
2022-10-08T06:29:06.168Z,15.69
2022-10-08T06:31:35.542Z,15.72
2022-10-08T06:34:04.912Z,15.75
2022-10-08T06:36:34.359Z,15.77
2022-10-08T06:39:08.155Z,15.78
2022-10-08T06:41:35.662Z,15.78
2022-10-08T06:44:05.328Z,15.85
2022-10-08T06:46:33.515Z,15.89
2022-10-08T06:49:01.760Z,15.87
2022-10-08T06:51:29.831Z,15.91
2022-10-08T06:54:05.751Z,15.94
2022-10-08T06:56:36.294Z,16.10
2022-10-08T06:59:05.668Z,16.53
2022-10-08T07:01:35.373Z,17.20
2022-10-08T07:04:04.818Z,17.49
2022-10-08T07:06:32.169Z,17.89
2022-10-08T07:09:02.163Z,18.07
2022-10-08T07:11:32.249Z,18.42
2022-10-08T07:13:59.954Z,18.52
2022-10-08T07:16:28.840Z,18.62
2022-10-08T07:18:58.949Z,18.57
2022-10-08T07:21:28.958Z,18.59
2022-10-08T07:23:58.767Z,18.45
2022-10-08T07:26:28.368Z,18.36
2022-10-08T07:29:06.961Z,18.29
2022-10-08T07:31:36.862Z,18.09
2022-10-08T07:34:07.169Z,18.01
2022-10-08T07:36:35.215Z,17.98
2022-10-08T07:39:06.082Z,17.95
2022-10-08T07:41:33.767Z,17.84
2022-10-08T07:44:02.741Z,17.90
2022-10-08T07:46:32.796Z,18.00
2022-10-08T07:49:01.811Z,18.04
2022-10-08T07:51:31.605Z,18.10
2022-10-08T07:54:03.890Z,18.15
2022-10-08T07:56:33.946Z,18.05
2022-10-08T07:59:02.669Z,18.08
2022-10-08T08:01:31.198Z,18.02
2022-10-08T08:04:07.081Z,18.05
2022-10-08T08:06:39.909Z,18.03
2022-10-08T08:09:07.916Z,17.97
2022-10-08T08:11:35.369Z,17.94
2022-10-08T08:14:02.902Z,17.90
2022-10-08T08:16:31.803Z,17.89
2022-10-08T08:19:02.328Z,17.95
2022-10-08T08:21:32.860Z,17.92
2022-10-08T08:24:06.423Z,17.89
2022-10-08T08:26:37.010Z,17.79
2022-10-08T08:29:07.719Z,17.75
2022-10-08T08:31:38.663Z,17.71
2022-10-08T08:34:09.068Z,17.61
2022-10-08T08:36:39.378Z,17.60
2022-10-08T08:39:10.601Z,17.60
2022-10-08T08:41:53.188Z,17.65
2022-10-08T08:44:27.204Z,17.60
2022-10-08T08:47:00.589Z,17.60
2022-10-08T08:49:30.467Z,17.61
2022-10-08T08:52:00.649Z,17.57
2022-10-08T08:54:28.049Z,17.46
2022-10-08T08:56:55.892Z,17.40
2022-10-08T08:59:46.029Z,17.49
2022-10-08T09:02:54.967Z,17.49
2022-10-08T09:05:25.356Z,17.22
2022-10-08T09:08:16.411Z,17.37
2022-10-08T09:10:51.764Z,17.26
2022-10-08T09:13:44.830Z,17.21
2022-10-08T09:16:15.899Z,17.19
2022-10-08T09:18:51.658Z,17.19
2022-10-08T09:21:20.176Z,16.99
2022-10-08T09:23:48.372Z,16.87
2022-10-08T09:26:24.630Z,16.93
2022-10-08T09:29:00.398Z,16.87
2022-10-08T09:31:36.874Z,16.69
2022-10-08T09:34:10.461Z,16.65
2022-10-08T09:36:55.025Z,16.55
2022-10-08T09:39:25.824Z,16.46
2022-10-08T09:42:08.646Z,16.55
2022-10-08T09:44:42.183Z,16.43
2022-10-08T09:47:13.851Z,16.35
2022-10-08T09:49:41.844Z,16.20
2022-10-08T09:52:27.260Z,16.28
2022-10-08T09:55:21.683Z,16.29
2022-10-08T09:57:54.726Z,16.13
2022-10-08T10:00:29.506Z,16.10
2022-10-08T10:02:58.852Z,16.03
2022-10-08T10:05:32.530Z,16.09
2022-10-08T10:08:00.000Z,16.34
2022-10-08T10:10:33.654Z,16.09
2022-10-08T10:13:00.891Z,16.34
2022-10-08T10:16:04.635Z,16.10
2022-10-08T10:18:52.210Z,16.02
2022-10-08T10:21:28.992Z,15.80
2022-10-08T10:24:22.199Z,15.76
2022-10-08T10:26:54.647Z,15.53
2022-10-08T10:29:27.180Z,15.51
2022-10-08T10:32:00.710Z,15.59
2022-10-08T10:34:31.203Z,15.55
2022-10-08T10:37:05.264Z,15.53
2022-10-08T10:39:39.730Z,15.54
2022-10-08T10:42:07.077Z,15.34
2022-10-08T10:44:47.246Z,15.35
2022-10-08T10:47:15.820Z,15.17
2022-10-08T10:49:44.350Z,15.18
2022-10-08T10:52:39.276Z,15.18
2022-10-08T10:55:18.402Z,15.14
2022-10-08T10:58:08.497Z,15.26
2022-10-08T11:00:41.968Z,15.10
2022-10-08T11:03:24.166Z,15.05
2022-10-08T11:06:13.036Z,14.98
2022-10-08T11:08:59.915Z,15.07
2022-10-08T11:11:50.413Z,14.85
2022-10-08T11:14:36.361Z,14.99
2022-10-08T11:17:19.900Z,15.02
2022-10-08T11:20:04.268Z,14.96
2022-10-08T11:22:40.352Z,14.94
2022-10-08T11:26:16.481Z,15.01
2022-10-08T11:28:58.141Z,14.97
2022-10-08T11:31:36.276Z,14.95
2022-10-08T11:34:04.771Z,14.80
2022-10-08T11:36:48.394Z,14.94
2022-10-08T11:39:31.955Z,14.93
2022-10-08T11:42:08.275Z,14.84
2022-10-08T11:44:37.438Z,14.75
2022-10-08T11:47:42.126Z,14.93
2022-10-08T11:50:24.642Z,14.90
2022-10-08T11:52:54.834Z,14.70
2022-10-08T11:55:29.349Z,14.65
2022-10-08T11:58:21.354Z,14.72
2022-10-08T12:00:49.731Z,14.49
2022-10-08T12:03:27.647Z,14.58
2022-10-08T12:05:59.004Z,14.41
2022-10-08T12:08:57.535Z,14.52
2022-10-08T12:11:37.829Z,14.40
2022-10-08T12:14:11.385Z,14.30
2022-10-08T12:16:47.968Z,14.19
2022-10-08T12:19:34.281Z,14.18
2022-10-08T12:22:16.973Z,14.12
2022-10-08T12:24:49.629Z,13.85
2022-10-08T12:27:17.700Z,13.78
2022-10-08T12:30:01.054Z,13.95
2022-10-08T12:32:42.082Z,13.76
2022-10-08T12:35:28.116Z,13.90
2022-10-08T12:37:55.587Z,13.59
2022-10-08T12:40:40.796Z,13.52
2022-10-08T12:43:51.048Z,13.74
2022-10-08T12:46:44.935Z,13.61
2022-10-08T12:49:35.478Z,13.69
2022-10-08T12:52:12.030Z,13.56
2022-10-08T12:55:01.880Z,13.63
2022-10-08T12:57:39.660Z,13.44
2022-10-08T13:00:28.942Z,13.58
2022-10-08T13:03:16.864Z,13.49
2022-10-08T13:05:45.242Z,13.34
2022-10-08T13:08:18.743Z,13.42
2022-10-08T13:10:46.272Z,13.26
2022-10-08T13:13:38.548Z,13.47
2022-10-08T13:16:09.018Z,13.32
2022-10-08T13:18:37.962Z,13.29
2022-10-08T13:21:08.342Z,13.26
2022-10-08T13:23:40.067Z,13.26
2022-10-08T13:26:39.807Z,13.42
2022-10-08T13:29:22.605Z,13.41
2022-10-08T13:32:19.589Z,13.44
2022-10-08T13:34:51.426Z,13.24
2022-10-08T13:37:21.975Z,13.29
2022-10-08T13:40:02.975Z,13.25
2022-10-08T13:42:34.718Z,13.16
2022-10-08T13:45:04.403Z,13.08
2022-10-08T13:47:32.088Z,13.03
2022-10-08T13:50:02.800Z,13.05
2022-10-08T13:52:34.389Z,13.14
2022-10-08T13:55:09.046Z,13.10
2022-10-08T13:57:36.499Z,12.99
2022-10-08T14:00:05.546Z,12.97
2022-10-08T14:02:33.065Z,12.91
2022-10-08T14:05:00.417Z,12.88
2022-10-08T14:07:31.530Z,12.87
2022-10-08T14:10:01.915Z,12.80
2022-10-08T14:12:35.446Z,12.85
2022-10-08T14:15:02.846Z,12.72
2022-10-08T14:17:32.846Z,12.67
2022-10-08T14:20:00.422Z,12.65
2022-10-08T14:22:27.867Z,12.63
2022-10-08T14:24:55.219Z,12.60
2022-10-08T14:27:22.687Z,12.56
2022-10-08T14:29:50.132Z,12.51
2022-10-08T14:32:17.629Z,12.45
2022-10-08T14:34:44.959Z,12.38
2022-10-08T14:37:12.414Z,12.37
2022-10-08T14:39:39.879Z,12.33
2022-10-08T14:42:07.424Z,12.29
2022-10-08T14:44:34.794Z,12.27
2022-10-08T14:47:02.246Z,12.26
2022-10-08T14:49:29.679Z,12.24
2022-10-08T14:51:57.178Z,12.20
2022-10-08T14:54:26.059Z,12.18
2022-10-08T14:56:53.479Z,12.16
2022-10-08T14:59:22.186Z,12.12
2022-10-08T15:01:49.580Z,12.11
2022-10-08T15:04:17.251Z,12.13
2022-10-08T15:06:44.722Z,12.12
2022-10-08T15:09:12.690Z,12.14
2022-10-08T15:11:40.332Z,12.12
2022-10-08T15:14:07.836Z,12.07
2022-10-08T15:16:35.861Z,12.04
2022-10-08T15:19:07.830Z,12.10
2022-10-08T15:21:35.893Z,11.98
2022-10-08T15:24:03.497Z,11.91
2022-10-08T15:26:31.148Z,11.90
2022-10-08T15:28:58.639Z,11.89
2022-10-08T15:31:26.769Z,11.90
2022-10-08T15:33:56.374Z,11.94
2022-10-08T15:36:29.017Z,11.95
2022-10-08T15:39:12.203Z,12.07
2022-10-08T15:41:42.502Z,11.99
2022-10-08T15:44:14.298Z,11.99
2022-10-08T15:46:42.027Z,11.97
2022-10-08T15:49:09.493Z,11.93
2022-10-08T15:51:37.013Z,11.96
2022-10-08T15:54:04.938Z,11.94
2022-10-08T15:56:32.760Z,12.00
2022-10-08T15:59:01.438Z,12.05
2022-10-08T16:01:29.865Z,12.02
2022-10-08T16:03:58.437Z,12.00
2022-10-08T16:06:29.322Z,12.02
2022-10-08T16:08:58.208Z,12.02
2022-10-08T16:11:29.572Z,11.99
2022-10-08T16:14:03.272Z,12.03
2022-10-08T16:16:31.097Z,11.93
2022-10-08T16:19:02.234Z,11.94
2022-10-08T16:21:31.792Z,11.93
2022-10-08T16:23:59.790Z,11.88
2022-10-08T16:26:29.233Z,11.88
2022-10-08T16:28:59.413Z,11.77
2022-10-08T16:31:28.977Z,11.89
2022-10-08T16:33:58.053Z,11.82
2022-10-08T16:36:27.257Z,11.85
2022-10-08T16:38:55.146Z,11.80
2022-10-08T16:41:28.854Z,11.94
2022-10-08T16:43:57.790Z,12.19
2022-10-08T16:46:28.199Z,11.94
2022-10-08T16:48:56.964Z,11.81
2022-10-08T16:51:27.021Z,11.79
2022-10-08T16:53:56.511Z,11.71
2022-10-08T16:56:26.815Z,11.70
2022-10-08T16:58:56.423Z,11.68
2022-10-08T17:01:24.412Z,11.64
2022-10-08T17:03:52.938Z,11.51
2022-10-08T17:06:22.598Z,11.56
2022-10-08T17:08:51.378Z,11.50
2022-10-08T17:11:19.415Z,11.47
2022-10-08T17:13:55.958Z,11.42
2022-10-08T17:16:26.429Z,11.40
2022-10-08T17:18:57.013Z,11.45
2022-10-08T17:21:25.362Z,11.39
2022-10-08T17:23:52.928Z,11.34
2022-10-08T17:26:22.760Z,11.39
2022-10-08T17:28:52.070Z,11.32
2022-10-08T17:31:22.696Z,11.29
2022-10-08T17:33:50.663Z,11.20
2022-10-08T17:36:26.651Z,11.21
2022-10-08T17:38:56.758Z,11.22
2022-10-08T17:41:34.825Z,11.26
2022-10-08T17:44:05.437Z,11.23
2022-10-08T17:46:36.415Z,11.18
2022-10-08T17:49:04.790Z,11.14
2022-10-08T17:51:32.765Z,11.14
2022-10-08T17:54:03.658Z,11.18
2022-10-08T17:56:32.625Z,11.19
2022-10-08T17:59:00.616Z,11.09
2022-10-08T18:01:31.124Z,11.16
2022-10-08T18:04:10.333Z,11.26
2022-10-08T18:06:43.446Z,11.11
2022-10-08T18:09:13.943Z,11.07
2022-10-08T18:11:45.070Z,11.12
2022-10-08T18:14:13.273Z,11.08
2022-10-08T18:16:45.568Z,11.03
2022-10-08T18:19:15.246Z,11.02
2022-10-08T18:21:42.733Z,11.02
2022-10-08T18:24:11.230Z,11.01
2022-10-08T18:26:38.719Z,11.03
2022-10-08T18:29:09.865Z,11.06
2022-10-08T18:31:39.850Z,10.99
2022-10-08T18:34:11.980Z,11.04
2022-10-08T18:36:40.640Z,10.96
2022-10-08T18:39:14.610Z,11.08
2022-10-08T18:41:44.852Z,11.02
2022-10-08T18:44:14.943Z,11.06
2022-10-08T18:46:45.755Z,11.04
2022-10-08T18:49:16.334Z,11.09
2022-10-08T18:51:44.240Z,11.11
2022-10-08T18:54:12.356Z,11.12
2022-10-08T18:56:41.358Z,11.12
2022-10-08T18:59:12.991Z,11.22
2022-10-08T19:01:43.041Z,11.27
2022-10-08T19:04:19.219Z,11.34
2022-10-08T19:06:48.637Z,11.31
2022-10-08T19:09:16.429Z,11.25
2022-10-08T19:11:49.777Z,11.25
2022-10-08T19:14:19.469Z,11.28
2022-10-08T19:16:47.595Z,11.19
2022-10-08T19:19:22.313Z,11.20
2022-10-08T19:21:50.792Z,11.15
2022-10-08T19:24:21.450Z,11.20
2022-10-08T19:26:50.055Z,11.22
2022-10-08T19:29:20.625Z,11.29
2022-10-08T19:31:49.143Z,11.27
2022-10-08T19:34:19.795Z,11.33
2022-10-08T19:36:48.210Z,11.32
2022-10-08T19:39:19.413Z,11.41
2022-10-08T19:41:47.080Z,11.39
2022-10-08T19:44:14.839Z,11.46
2022-10-08T19:46:42.419Z,11.37
2022-10-08T19:49:10.341Z,11.51
2022-10-08T19:51:38.571Z,11.46
2022-10-08T19:54:06.176Z,11.48
2022-10-08T19:56:33.972Z,11.41
2022-10-08T19:59:01.536Z,11.43
2022-10-08T20:01:32.832Z,11.49
2022-10-08T20:04:02.126Z,11.45
2022-10-08T20:06:32.238Z,11.50
2022-10-08T20:09:02.288Z,11.46
2022-10-08T20:11:31.515Z,11.43
2022-10-08T20:13:59.983Z,11.39
2022-10-08T20:16:34.003Z,11.46
2022-10-08T20:19:04.776Z,11.42
2022-10-08T20:21:34.615Z,11.35
2022-10-08T20:24:02.782Z,11.30
2022-10-08T20:26:32.816Z,11.30
2022-10-08T20:29:07.354Z,11.31
2022-10-08T20:31:40.833Z,11.36
2022-10-08T20:34:20.166Z,11.40
2022-10-08T20:36:49.000Z,11.21
2022-10-08T20:39:18.609Z,11.19
2022-10-08T20:41:46.574Z,11.13
2022-10-08T20:44:14.924Z,11.14
2022-10-08T20:46:42.875Z,11.14
2022-10-08T20:49:12.252Z,11.17
2022-10-08T20:51:41.614Z,11.19
2022-10-08T20:54:12.530Z,11.24
2022-10-08T20:56:41.090Z,11.16
2022-10-08T20:59:15.814Z,11.27
2022-10-08T21:01:43.383Z,11.17
2022-10-08T21:04:11.351Z,11.15
2022-10-08T21:06:44.376Z,11.32
2022-10-08T21:09:12.964Z,11.30
2022-10-08T21:11:41.048Z,11.28
2022-10-08T21:14:10.231Z,11.30
2022-10-08T21:16:40.179Z,11.38
2022-10-08T21:19:11.636Z,11.41
2022-10-08T21:21:39.858Z,11.42
2022-10-08T21:24:07.470Z,11.41
2022-10-08T21:26:37.580Z,11.48
2022-10-08T21:29:08.297Z,11.46
2022-10-08T21:31:37.249Z,11.46
2022-10-08T21:34:06.019Z,11.45
2022-10-08T21:36:39.083Z,11.55
2022-10-08T21:39:08.435Z,11.47
2022-10-08T21:41:38.586Z,11.55
2022-10-08T21:44:08.734Z,11.54
2022-10-08T21:46:41.417Z,11.63
2022-10-08T21:49:13.237Z,11.64
2022-10-08T21:51:40.886Z,11.58
2022-10-08T21:54:56.340Z,11.79
2022-10-08T21:57:23.726Z,11.62
2022-10-08T21:59:51.157Z,11.62
2022-10-08T22:02:18.663Z,11.59
2022-10-08T22:04:45.996Z,11.55
2022-10-08T22:07:13.485Z,11.55
2022-10-08T22:09:42.060Z,11.59
2022-10-08T22:12:09.479Z,11.58
2022-10-08T22:14:37.039Z,11.59
2022-10-08T22:17:04.410Z,11.61
2022-10-08T22:19:31.847Z,11.65
2022-10-08T22:21:59.257Z,11.62
2022-10-08T22:24:26.724Z,11.57
2022-10-08T22:26:54.187Z,11.64
2022-10-08T22:29:21.642Z,11.63
2022-10-08T22:31:49.088Z,11.63
2022-10-08T22:34:16.592Z,11.69
2022-10-08T22:36:45.135Z,11.64
2022-10-08T22:39:13.029Z,11.68
2022-10-08T22:41:40.733Z,11.69
2022-10-08T22:44:08.164Z,11.68
2022-10-08T22:46:38.738Z,11.75
2022-10-08T22:49:09.385Z,11.79
2022-10-08T22:51:37.234Z,11.76
2022-10-08T22:54:05.380Z,11.76
2022-10-08T22:56:33.334Z,11.70
2022-10-08T22:59:01.065Z,11.67
2022-10-08T23:01:29.917Z,11.70
2022-10-08T23:03:58.393Z,11.70
2022-10-08T23:06:28.752Z,11.75
2022-10-08T23:09:01.710Z,11.76
2022-10-08T23:11:30.483Z,11.75
2022-10-08T23:13:59.932Z,11.78
2022-10-08T23:16:29.245Z,11.79
2022-10-08T23:18:59.448Z,11.80
2022-10-08T23:21:27.040Z,11.72
2022-10-08T23:23:55.783Z,11.77
2022-10-08T23:26:24.048Z,11.73
2022-10-08T23:28:57.293Z,11.72
2022-10-08T23:31:27.878Z,11.71
2022-10-08T23:33:56.379Z,11.69
2022-10-08T23:36:32.151Z,11.77
2022-10-08T23:38:59.823Z,11.65
2022-10-08T23:41:27.991Z,11.66
2022-10-08T23:43:57.184Z,11.72
2022-10-08T23:46:27.056Z,11.73
2022-10-08T23:48:55.044Z,11.69
2022-10-08T23:51:23.935Z,11.65
2022-10-08T23:53:52.651Z,11.70
2022-10-08T23:56:21.206Z,11.71
2022-10-08T23:58:48.877Z,11.70
